LFMV/AVN METAR and TAF weather

Enter ICAO airport designator
Station Type Date Time Source
LFMV METAR 2019/08/25 14:00 UTC NOAA

LFMV 251400Z AUTO VRB04KT CAVOK 34/12 Q1015 NOSIG


Station Type Date Time Source
LFMV Decoded METAR 2019/08/25 14:00 UTC NOAA

Station name not available
Aug 25, 2019 - 10:00 AM EDT / 2019.08.25 1400 UTC
Wind: Variable at 5 MPH (4 KT):0
Visibility: greater than 7 mile(s):0
Temperature: 93 F (34 C)
Dew Point: 53 F (12 C)
Relative Humidity: 26%
Pressure (altimeter): 29.97 in. Hg (1015 hPa)
ob: LFMV 251400Z AUTO VRB04KT CAVOK 34/12 Q1015 NOSIG
cycle: 14

Station Type Date Time Source
LFMV TAF 2019/08/25 05:00 UTC NOAA

TAF
AMD LFMV 250551Z 2505/2603 VRB03KT CAVOK
TEMPO 2516/2519 22011KT
TEMPO 2602/2603 4000 BR SCT005 PROB30
TEMPO 2602/2603 0800 FG VV///

Example: see airport list